sensor_id;sensor_type;location;lat;lon;timestamp;pressure;altitude;pressure_sealevel;temperature;humidity
54439;BME280;40347;53.848;27.498;2023-04-04T00:00:58;1016.5;;;1.3;59.9
54439;BME280;40347;53.848;27.498;2023-04-04T00:06:04;1016.5;;;1.3;59.9
54439;BME280;40347;53.848;27.498;2023-04-04T00:11:30;1016.4;;;1.3;60
54439;BME280;40347;53.848;27.498;2023-04-04T00:16:06;1016.3;;;1.3;59.9
54439;BME280;40347;53.848;27.498;2023-04-04T00:21:04;1016.3;;;1.3;60
54439;BME280;40347;53.848;27.498;2023-04-04T00:25:58;1016.2;;;1.4;60.2
54439;BME280;40347;53.848;27.498;2023-04-04T00:30:52;1016.1;;;1.5;60.1
54439;BME280;40347;53.848;27.498;2023-04-04T00:35:52;1016.1;;;1.5;59.9
54439;BME280;40347;53.848;27.498;2023-04-04T00:40:52;1016.1;;;1.7;59.7
54439;BME280;40347;53.848;27.498;2023-04-04T00:45:52;1016;;;1.8;59.4
54439;BME280;40347;53.848;27.498;2023-04-04T00:51:24;1016;;;1.3;60.1
54439;BME280;40347;53.848;27.498;2023-04-04T00:55:52;1015.9;;;1.2;60.9
54439;BME280;40347;53.848;27.498;2023-04-04T01:00:52;1015.9;;;1.5;60.6
54439;BME280;40347;53.848;27.498;2023-04-04T01:05:52;1015.9;;;1.7;60
54439;BME280;40347;53.848;27.498;2023-04-04T01:11:14;1015.8;;;1.7;59.9
54439;BME280;40347;53.848;27.498;2023-04-04T01:15:52;1015.7;;;1.4;60.3
54439;BME280;40347;53.848;27.498;2023-04-04T01:20:55;1015.7;;;1.4;60.7
54439;BME280;40347;53.848;27.498;2023-04-04T01:26:06;1015.7;;;1.2;61.5
54439;BME280;40347;53.848;27.498;2023-04-04T01:30:52;1015.7;;;0.9;62.9
54439;BME280;40347;53.848;27.498;2023-04-04T01:35:55;1015.7;;;0.8;63.3
54439;BME280;40347;53.848;27.498;2023-04-04T01:41:00;1015.7;;;1;63.2
54439;BME280;40347;53.848;27.498;2023-04-04T01:46:02;1015.7;;;1.1;63
54439;BME280;40347;53.848;27.498;2023-04-04T01:51:12;1015.6;;;1.3;62.7
54439;BME280;40347;53.848;27.498;2023-04-04T01:55:52;1015.6;;;1.5;62.3
54439;BME280;40347;53.848;27.498;2023-04-04T02:01:04;1015.6;;;1.7;62
54439;BME280;40347;53.848;27.498;2023-04-04T02:05:52;1015.6;;;1.6;62.2
54439;BME280;40347;53.848;27.498;2023-04-04T02:11:02;1015.6;;;1.5;62.9
54439;BME280;40347;53.848;27.498;2023-04-04T02:15:52;1015.6;;;1.2;63.9
54439;BME280;40347;53.848;27.498;2023-04-04T02:21:16;1015.6;;;1.1;64.9
54439;BME280;40347;53.848;27.498;2023-04-04T02:26:06;1015.7;;;1.3;63.9
54439;BME280;40347;53.848;27.498;2023-04-04T02:30:52;1015.7;;;1.6;63.3
54439;BME280;40347;53.848;27.498;2023-04-04T02:35:55;1015.7;;;1.6;62.8
54439;BME280;40347;53.848;27.498;2023-04-04T02:41:38;1015.7;;;1.7;62.7
54439;BME280;40347;53.848;27.498;2023-04-04T02:45:52;1015.6;;;1.7;62.6
54439;BME280;40347;53.848;27.498;2023-04-04T02:50:52;1015.6;;;1.8;62.5
54439;BME280;40347;53.848;27.498;2023-04-04T02:55:58;1015.7;;;1.9;62.7
54439;BME280;40347;53.848;27.498;2023-04-04T03:01:04;1015.8;;;1.9;62.7
54439;BME280;40347;53.848;27.498;2023-04-04T03:05:52;1015.7;;;2;63.4
54439;BME280;40347;53.848;27.498;2023-04-04T03:11:04;1015.7;;;1.9;63.7
54439;BME280;40347;53.848;27.498;2023-04-04T03:15:56;1015.7;;;1.9;64.2
54439;BME280;40347;53.848;27.498;2023-04-04T03:21:10;1015.7;;;1.6;64.4
54439;BME280;40347;53.848;27.498;2023-04-04T03:25:52;1015.7;;;1.4;65.2
54439;BME280;40347;53.848;27.498;2023-04-04T03:31:06;1015.8;;;1.4;66.1
54439;BME280;40347;53.848;27.498;2023-04-04T03:35:52;1015.8;;;1.4;66.5
54439;BME280;40347;53.848;27.498;2023-04-04T03:40:59;1015.8;;;1.5;66.7
54439;BME280;40347;53.848;27.498;2023-04-04T03:46:02;1015.7;;;1.5;66.9
54439;BME280;40347;53.848;27.498;2023-04-04T03:51:02;1015.8;;;1.3;67
54439;BME280;40347;53.848;27.498;2023-04-04T03:56:24;1015.8;;;1.2;67.2
54439;BME280;40347;53.848;27.498;2023-04-04T04:01:04;1015.9;;;1.2;67.7
54439;BME280;40347;53.848;27.498;2023-04-04T04:05:52;1015.9;;;1.2;67.8
54439;BME280;40347;53.848;27.498;2023-04-04T04:10:52;1015.9;;;1.1;67.6
54439;BME280;40347;53.848;27.498;2023-04-04T04:15:53;1015.9;;;1.1;68.1
54439;BME280;40347;53.848;27.498;2023-04-04T04:20:55;1015.9;;;1.2;68
54439;BME280;40347;53.848;27.498;2023-04-04T04:26:28;1015.8;;;1.3;67.9
54439;BME280;40347;53.848;27.498;2023-04-04T04:31:24;1015.8;;;1.4;67.7
54439;BME280;40347;53.848;27.498;2023-04-04T04:35:52;1015.9;;;1.5;67.5
54439;BME280;40347;53.848;27.498;2023-04-04T04:41:30;1015.8;;;1.5;67.4
54439;BME280;40347;53.848;27.498;2023-04-04T04:45:52;1015.8;;;1.6;67.5
54439;BME280;40347;53.848;27.498;2023-04-04T04:50:52;1015.6;;;1.7;67.5
54439;BME280;40347;53.848;27.498;2023-04-04T04:56:20;1015.5;;;1.6;67.3
54439;BME280;40347;53.848;27.498;2023-04-04T05:01:08;1015.5;;;1.6;66.9
54439;BME280;40347;53.848;27.498;2023-04-04T05:05:52;1015.5;;;1.5;67.3
54439;BME280;40347;53.848;27.498;2023-04-04T05:11:10;1015.6;;;1.6;67.4
54439;BME280;40347;53.848;27.498;2023-04-04T05:16:06;1015.7;;;1.8;67.2
54439;BME280;40347;53.848;27.498;2023-04-04T05:21:06;1015.7;;;1.8;66.8
54439;BME280;40347;53.848;27.498;2023-04-04T05:25:52;1015.7;;;1.8;66.6
54439;BME280;40347;53.848;27.498;2023-04-04T05:31:20;1015.7;;;1.9;66.5
54439;BME280;40347;53.848;27.498;2023-04-04T05:36:06;1015.7;;;2;66.6
54439;BME280;40347;53.848;27.498;2023-04-04T05:41:16;1015.5;;;1.9;66
54439;BME280;40347;53.848;27.498;2023-04-04T05:46:18;1015.4;;;1.8;66.5
54439;BME280;40347;53.848;27.498;2023-04-04T05:50:58;1015.4;;;1.7;66.9
54439;BME280;40347;53.848;27.498;2023-04-04T05:56:06;1015.4;;;1.5;66.7
54439;BME280;40347;53.848;27.498;2023-04-04T06:00:58;1015.4;;;1.5;67.9
54439;BME280;40347;53.848;27.498;2023-04-04T06:05:52;1015.5;;;1.4;67.8
54439;BME280;40347;53.848;27.498;2023-04-04T06:11:18;1015.5;;;1.6;68.4
54439;BME280;40347;53.848;27.498;2023-04-04T06:15:52;1015.6;;;1.7;68
54439;BME280;40347;53.848;27.498;2023-04-04T06:20:52;1015.6;;;1.6;68.1
54439;BME280;40347;53.848;27.498;2023-04-04T06:26:44;1015.5;;;1.8;68.3
54439;BME280;40347;53.848;27.498;2023-04-04T06:30:52;1015.6;;;2.1;68.2
54439;BME280;40347;53.848;27.498;2023-04-04T06:36:18;1015.6;;;2.3;67.8
54439;BME280;40347;53.848;27.498;2023-04-04T06:40:52;1015.6;;;2.5;67.6
54439;BME280;40347;53.848;27.498;2023-04-04T06:46:26;1015.6;;;2.6;67.1
54439;BME280;40347;53.848;27.498;2023-04-04T06:51:12;1015.6;;;2.7;67.5
54439;BME280;40347;53.848;27.498;2023-04-04T06:56:16;1015.7;;;2.9;67.4
54439;BME280;40347;53.848;27.498;2023-04-04T07:00:52;1015.6;;;3.3;67.1
54439;BME280;40347;53.848;27.498;2023-04-04T07:06:00;1015.6;;;3.7;66.5
54439;BME280;40347;53.848;27.498;2023-04-04T07:11:18;1015.5;;;4.2;65.7
54439;BME280;40347;53.848;27.498;2023-04-04T07:16:06;1015.5;;;4.5;64.1
54439;BME280;40347;53.848;27.498;2023-04-04T07:20:58;1015.4;;;4.7;63.1
54439;BME280;40347;53.848;27.498;2023-04-04T07:26:06;1015.5;;;5.1;62.8
54439;BME280;40347;53.848;27.498;2023-04-04T07:31:06;1015.4;;;5.4;61.1
54439;BME280;40347;53.848;27.498;2023-04-04T07:35:52;1015.2;;;5.6;59.3
54439;BME280;40347;53.848;27.498;2023-04-04T07:40:58;1015.1;;;5.9;60.1
54439;BME280;40347;53.848;27.498;2023-04-04T07:46:14;1015.2;;;6.3;60.8
54439;BME280;40347;53.848;27.498;2023-04-04T07:51:06;1015.2;;;6.7;58
54439;BME280;40347;53.848;27.498;2023-04-04T07:55:52;1015.3;;;6.5;56.1
54439;BME280;40347;53.848;27.498;2023-04-04T08:01:06;1015.4;;;6.4;56.5
54439;BME280;40347;53.848;27.498;2023-04-04T08:05:52;1015.5;;;6.4;56.7
54439;BME280;40347;53.848;27.498;2023-04-04T08:11:14;1015.6;;;6.5;57.2
54439;BME280;40347;53.848;27.498;2023-04-04T08:15:52;1015.7;;;6.6;57.8
54439;BME280;40347;53.848;27.498;2023-04-04T08:21:02;1015.7;;;6.9;57.7
54439;BME280;40347;53.848;27.498;2023-04-04T08:25:52;1015.8;;;6.9;57
54439;BME280;40347;53.848;27.498;2023-04-04T08:31:12;1015.8;;;7;56.4
54439;BME280;40347;53.848;27.498;2023-04-04T08:36:00;1015.7;;;6.9;55.5
54439;BME280;40347;53.848;27.498;2023-04-04T08:41:06;1015.6;;;6.9;55.1
54439;BME280;40347;53.848;27.498;2023-04-04T08:46:38;1015.5;;;6.9;54.5
54439;BME280;40347;53.848;27.498;2023-04-04T08:51:26;1015.6;;;6.9;53.8
54439;BME280;40347;53.848;27.498;2023-04-04T08:56:12;1015.5;;;7;55
54439;BME280;40347;53.848;27.498;2023-04-04T09:01:04;1015.6;;;7.3;54.9
54439;BME280;40347;53.848;27.498;2023-04-04T09:05:52;1015.6;;;7.7;54.5
54439;BME280;40347;53.848;27.498;2023-04-04T09:11:02;1015.6;;;7.8;53.5
54439;BME280;40347;53.848;27.498;2023-04-04T09:16:06;1015.7;;;7.7;53.2
54439;BME280;40347;53.848;27.498;2023-04-04T09:20:52;1015.8;;;7.3;52.1
54439;BME280;40347;53.848;27.498;2023-04-04T09:25:53;1015.8;;;7.1;53.7
54439;BME280;40347;53.848;27.498;2023-04-04T09:31:12;1015.7;;;7.3;53.7
54439;BME280;40347;53.848;27.498;2023-04-04T09:36:01;1015.7;;;7.3;53.3
54439;BME280;40347;53.848;27.498;2023-04-04T09:41:20;1015.7;;;7;52.5
54439;BME280;40347;53.848;27.498;2023-04-04T09:45:53;1015.7;;;6.8;52.7
54439;BME280;40347;53.848;27.498;2023-04-04T09:50:52;1015.6;;;6.9;53.4
54439;BME280;40347;53.848;27.498;2023-04-04T09:56:12;1015.6;;;6.9;52.4
54439;BME280;40347;53.848;27.498;2023-04-04T10:00:53;1015.6;;;6.5;53.3
54439;BME280;40347;53.848;27.498;2023-04-04T10:06:06;1015.6;;;6.8;54.1
54439;BME280;40347;53.848;27.498;2023-04-04T10:10:55;1015.6;;;7.5;53.3
54439;BME280;40347;53.848;27.498;2023-04-04T10:16:14;1015.6;;;8.1;51.6
54439;BME280;40347;53.848;27.498;2023-04-04T10:21:07;1015.6;;;8.6;51.6
54439;BME280;40347;53.848;27.498;2023-04-04T10:25:52;1015.5;;;9;51.2
54439;BME280;40347;53.848;27.498;2023-04-04T10:30:54;1015.5;;;9.2;51
54439;BME280;40347;53.848;27.498;2023-04-04T10:35:52;1015.5;;;9.3;50.1
54439;BME280;40347;53.848;27.498;2023-04-04T10:40:52;1015.6;;;9.2;50.1
54439;BME280;40347;53.848;27.498;2023-04-04T10:46:07;1015.6;;;9.2;50.1
54439;BME280;40347;53.848;27.498;2023-04-04T10:50:52;1015.6;;;9;49.5
54439;BME280;40347;53.848;27.498;2023-04-04T10:56:04;1015.7;;;8.7;50.3
54439;BME280;40347;53.848;27.498;2023-04-04T11:01:06;1015.6;;;8.4;50.6
54439;BME280;40347;53.848;27.498;2023-04-04T11:05:52;1015.7;;;8.2;50.9
54439;BME280;40347;53.848;27.498;2023-04-04T11:10:53;1015.7;;;7.9;51
54439;BME280;40347;53.848;27.498;2023-04-04T11:15:53;1015.7;;;7.6;50.3
54439;BME280;40347;53.848;27.498;2023-04-04T11:21:07;1015.7;;;7.2;51.3
54439;BME280;40347;53.848;27.498;2023-04-04T11:26:12;1015.7;;;7.4;52.2
54439;BME280;40347;53.848;27.498;2023-04-04T11:31:25;1015.6;;;7.4;51.9
54439;BME280;40347;53.848;27.498;2023-04-04T11:36:06;1015.6;;;7.5;51.7
54439;BME280;40347;53.848;27.498;2023-04-04T11:40:53;1015.7;;;7.5;51.1
54439;BME280;40347;53.848;27.498;2023-04-04T11:45:52;1015.7;;;7.1;50.5
54439;BME280;40347;53.848;27.498;2023-04-04T11:51:06;1015.7;;;6.8;52
54439;BME280;40347;53.848;27.498;2023-04-04T11:55:52;1015.7;;;6.7;52.1
54439;BME280;40347;53.848;27.498;2023-04-04T12:01:06;1015.8;;;6.5;52.3
54439;BME280;40347;53.848;27.498;2023-04-04T12:05:58;1015.8;;;6.7;52.9
54439;BME280;40347;53.848;27.498;2023-04-04T12:11:20;1015.8;;;6.8;52.1
54439;BME280;40347;53.848;27.498;2023-04-04T12:15:52;1015.8;;;7;52.6
54439;BME280;40347;53.848;27.498;2023-04-04T12:20:52;1015.8;;;7.3;52.2
54439;BME280;40347;53.848;27.498;2023-04-04T12:25:53;1015.8;;;7.5;52
54439;BME280;40347;53.848;27.498;2023-04-04T12:31:08;1015.7;;;7.5;51.9
54439;BME280;40347;53.848;27.498;2023-04-04T12:36:24;1015.7;;;7.4;52.1
54439;BME280;40347;53.848;27.498;2023-04-04T12:41:08;1015.7;;;6.9;52.7
54439;BME280;40347;53.848;27.498;2023-04-04T12:46:06;1015.8;;;6.6;53.3
54439;BME280;40347;53.848;27.498;2023-04-04T12:51:08;1015.8;;;6.6;53.6
54439;BME280;40347;53.848;27.498;2023-04-04T12:56:08;1015.8;;;6.4;53.6
54439;BME280;40347;53.848;27.498;2023-04-04T13:01:06;1015.8;;;6.2;53.8
54439;BME280;40347;53.848;27.498;2023-04-04T13:06:09;1015.8;;;6;53.9
54439;BME280;40347;53.848;27.498;2023-04-04T13:11:00;1015.9;;;5.9;54.4
54439;BME280;40347;53.848;27.498;2023-04-04T13:16:13;1015.9;;;5.8;54.7
54439;BME280;40347;53.848;27.498;2023-04-04T13:21:05;1016;;;5.8;54.8
54439;BME280;40347;53.848;27.498;2023-04-04T13:26:05;1015.9;;;5.5;54.9
54439;BME280;40347;53.848;27.498;2023-04-04T13:31:24;1015.9;;;5.3;55.8
54439;BME280;40347;53.848;27.498;2023-04-04T13:35:52;1016;;;5.2;56
54439;BME280;40347;53.848;27.498;2023-04-04T13:40:52;1016;;;5.2;56
54439;BME280;40347;53.848;27.498;2023-04-04T13:45:58;1016;;;4.9;56.3
54439;BME280;40347;53.848;27.498;2023-04-04T13:51:04;1016;;;4.6;57
54439;BME280;40347;53.848;27.498;2023-04-04T13:55:58;1016;;;4.4;57.7
54439;BME280;40347;53.848;27.498;2023-04-04T14:01:04;1016;;;4.4;58
54439;BME280;40347;53.848;27.498;2023-04-04T14:05:52;1016;;;4.5;57.6
54439;BME280;40347;53.848;27.498;2023-04-04T14:11:11;1016;;;4.6;57.5
54439;BME280;40347;53.848;27.498;2023-04-04T14:16:16;1015.9;;;4.7;57.3
54439;BME280;40347;53.848;27.498;2023-04-04T14:20:58;1015.8;;;4.8;57.5
54439;BME280;40347;53.848;27.498;2023-04-04T14:26:06;1015.8;;;4.8;57.1
54439;BME280;40347;53.848;27.498;2023-04-04T14:31:13;1015.9;;;4.7;57.2
54439;BME280;40347;53.848;27.498;2023-04-04T14:35:58;1015.9;;;4.6;57.6
54439;BME280;40347;53.848;27.498;2023-04-04T14:40:52;1015.9;;;4.7;57.7
54439;BME280;40347;53.848;27.498;2023-04-04T14:45:58;1015.8;;;4.8;57.5
54439;BME280;40347;53.848;27.498;2023-04-04T14:51:04;1015.9;;;4.7;57.4
54439;BME280;40347;53.848;27.498;2023-04-04T14:56:06;1015.9;;;4.7;57.5
54439;BME280;40347;53.848;27.498;2023-04-04T15:01:18;1016;;;4.6;57.5
54439;BME280;40347;53.848;27.498;2023-04-04T15:06:06;1016;;;4.4;57.3
54439;BME280;40347;53.848;27.498;2023-04-04T15:10:59;1016;;;4.3;57.9
54439;BME280;40347;53.848;27.498;2023-04-04T15:15:52;1016;;;4.4;58
54439;BME280;40347;53.848;27.498;2023-04-04T15:21:06;1015.9;;;4.4;57.9
54439;BME280;40347;53.848;27.498;2023-04-04T15:26:10;1015.9;;;4.6;58
54439;BME280;40347;53.848;27.498;2023-04-04T15:30:53;1015.9;;;4.8;57.8
54439;BME280;40347;53.848;27.498;2023-04-04T15:35:52;1015.8;;;4.8;57.8
54439;BME280;40347;53.848;27.498;2023-04-04T15:41:20;1015.8;;;5;57.6
54439;BME280;40347;53.848;27.498;2023-04-04T15:45:52;1015.8;;;4.9;57.6
54439;BME280;40347;53.848;27.498;2023-04-04T15:50:54;1015.8;;;4.8;57.7
54439;BME280;40347;53.848;27.498;2023-04-04T15:56:04;1015.7;;;4.9;57.6
54439;BME280;40347;53.848;27.498;2023-04-04T16:00:58;1015.7;;;4.9;57.5
54439;BME280;40347;53.848;27.498;2023-04-04T16:05:52;1015.6;;;4.9;57.6
54439;BME280;40347;53.848;27.498;2023-04-04T16:10:58;1015.7;;;4.9;57.5
54439;BME280;40347;53.848;27.498;2023-04-04T16:15:53;1015.7;;;4.9;57.5
54439;BME280;40347;53.848;27.498;2023-04-04T16:21:22;1015.8;;;4.7;57.3
54439;BME280;40347;53.848;27.498;2023-04-04T16:25:58;1015.9;;;4.6;57.3
54439;BME280;40347;53.848;27.498;2023-04-04T16:31:04;1015.9;;;4.6;57.7
54439;BME280;40347;53.848;27.498;2023-04-04T16:35:58;1015.8;;;4.5;57.6
54439;BME280;40347;53.848;27.498;2023-04-04T16:41:10;1015.8;;;4.3;57.9
54439;BME280;40347;53.848;27.498;2023-04-04T16:46:34;1015.9;;;4.3;58.1
54439;BME280;40347;53.848;27.498;2023-04-04T16:51:18;1016;;;4.3;57.9
54439;BME280;40347;53.848;27.498;2023-04-04T16:56:08;1015.9;;;4.3;57.6
54439;BME280;40347;53.848;27.498;2023-04-04T17:00:52;1016;;;4.2;58.1
54439;BME280;40347;53.848;27.498;2023-04-04T17:06:32;1015.9;;;4.3;58.1
54439;BME280;40347;53.848;27.498;2023-04-04T17:11:08;1016;;;4.4;58
54439;BME280;40347;53.848;27.498;2023-04-04T17:15:58;1016;;;4.4;57.9
54439;BME280;40347;53.848;27.498;2023-04-04T18:46:04;1016;;;4.3;58.5
54439;BME280;40347;53.848;27.498;2023-04-04T18:51:12;1016;;;4.2;58.6
54439;BME280;40347;53.848;27.498;2023-04-04T18:55:58;1016;;;4.3;58.4
54439;BME280;40347;53.848;27.498;2023-04-04T19:00:53;1016;;;4.3;58.4
54439;BME280;40347;53.848;27.498;2023-04-04T19:06:06;1016;;;4.4;58.6
54439;BME280;40347;53.848;27.498;2023-04-04T19:10:52;1016;;;4.4;58.5
54439;BME280;40347;53.848;27.498;2023-04-04T19:15:52;1016;;;4.4;58.6
54439;BME280;40347;53.848;27.498;2023-04-04T19:20:58;1016;;;4.4;58.7
54439;BME280;40347;53.848;27.498;2023-04-04T19:26:18;1016;;;4.3;58.6
54439;BME280;40347;53.848;27.498;2023-04-04T19:31:07;1016;;;4.3;58.8
54439;BME280;40347;53.848;27.498;2023-04-04T19:35:53;1016;;;4.2;58.9
54439;BME280;40347;53.848;27.498;2023-04-04T19:40:55;1016;;;4.3;58.9
54439;BME280;40347;53.848;27.498;2023-04-04T19:45:53;1016;;;4.1;58.8
54439;BME280;40347;53.848;27.498;2023-04-04T19:51:08;1016;;;4;59.4
54439;BME280;40347;53.848;27.498;2023-04-04T19:55:53;1016;;;4;59.2
54439;BME280;40347;53.848;27.498;2023-04-04T20:00:53;1016;;;4;59
54439;BME280;40347;53.848;27.498;2023-04-04T20:05:53;1015.9;;;4;59.4
54439;BME280;40347;53.848;27.498;2023-04-04T20:10:58;1015.9;;;4.1;59.6
54439;BME280;40347;53.848;27.498;2023-04-04T20:16:06;1015.9;;;4.1;59.4
54439;BME280;40347;53.848;27.498;2023-04-04T20:21:07;1015.9;;;4;59.3
54439;BME280;40347;53.848;27.498;2023-04-04T20:25:53;1015.9;;;3.8;59.7
54439;BME280;40347;53.848;27.498;2023-04-04T20:31:14;1016;;;3.7;60.3
54439;BME280;40347;53.848;27.498;2023-04-04T20:35:59;1016;;;3.7;60.5
54439;BME280;40347;53.848;27.498;2023-04-04T20:41:08;1016;;;3.7;60.6
54439;BME280;40347;53.848;27.498;2023-04-04T20:46:07;1015.9;;;3.6;60.6
54439;BME280;40347;53.848;27.498;2023-04-04T20:50:53;1015.9;;;3.6;60.9
54439;BME280;40347;53.848;27.498;2023-04-04T20:56:08;1015.9;;;3.7;60.6
54439;BME280;40347;53.848;27.498;2023-04-04T21:00:59;1016;;;3.7;60.6
54439;BME280;40347;53.848;27.498;2023-04-04T21:05:53;1016;;;3.8;60.7
54439;BME280;40347;53.848;27.498;2023-04-04T21:11:07;1016;;;3.8;60.7
54439;BME280;40347;53.848;27.498;2023-04-04T21:15:53;1016;;;3.8;60.4
54439;BME280;40347;53.848;27.498;2023-04-04T21:21:09;1016;;;3.9;60.5
54439;BME280;40347;53.848;27.498;2023-04-04T21:25:54;1016;;;3.9;60.7
54439;BME280;40347;53.848;27.498;2023-04-04T21:30:59;1016;;;4;60.7
54439;BME280;40347;53.848;27.498;2023-04-04T21:36:24;1016;;;4;60.8
54439;BME280;40347;53.848;27.498;2023-04-04T21:41:06;1016;;;4;60.7
54439;BME280;40347;53.848;27.498;2023-04-04T21:46:13;1016;;;4;60.9
54439;BME280;40347;53.848;27.498;2023-04-04T21:50:53;1016;;;4.1;61.1
54439;BME280;40347;53.848;27.498;2023-04-04T21:55:53;1016;;;4.1;61.3
54439;BME280;40347;53.848;27.498;2023-04-04T22:00:53;1016;;;4.1;61.5
54439;BME280;40347;53.848;27.498;2023-04-04T22:06:19;1016;;;4.1;61.5
54439;BME280;40347;53.848;27.498;2023-04-04T22:10:53;1016;;;4.1;61.7
54439;BME280;40347;53.848;27.498;2023-04-04T22:15:59;1016;;;4;62
54439;BME280;40347;53.848;27.498;2023-04-04T22:21:13;1016;;;4.1;62.4
54439;BME280;40347;53.848;27.498;2023-04-04T22:25:53;1016;;;4;62.5
54439;BME280;40347;53.848;27.498;2023-04-04T22:31:05;1016.1;;;4.1;62.5
54439;BME280;40347;53.848;27.498;2023-04-04T22:36:27;1016;;;4.1;62.6
54439;BME280;40347;53.848;27.498;2023-04-04T22:40:59;1016;;;4;62.9
54439;BME280;40347;53.848;27.498;2023-04-04T22:45:53;1016.1;;;4;63.2
54439;BME280;40347;53.848;27.498;2023-04-04T22:51:07;1016.1;;;4;63.3
54439;BME280;40347;53.848;27.498;2023-04-04T22:55:53;1016.1;;;4;63.4
54439;BME280;40347;53.848;27.498;2023-04-04T23:01:07;1016.1;;;4;63.5
54439;BME280;40347;53.848;27.498;2023-04-04T23:06:25;1016.1;;;4;63.5
54439;BME280;40347;53.848;27.498;2023-04-04T23:11:15;1016.1;;;4;63.8
54439;BME280;40347;53.848;27.498;2023-04-04T23:16:19;1016.1;;;4;63.9
54439;BME280;40347;53.848;27.498;2023-04-04T23:20:53;1016.1;;;4;63.7
54439;BME280;40347;53.848;27.498;2023-04-04T23:25:53;1016.1;;;4;63.7
54439;BME280;40347;53.848;27.498;2023-04-04T23:30:53;1016.1;;;3.9;63.8
54439;BME280;40347;53.848;27.498;2023-04-04T23:35:53;1016;;;3.9;64.2
54439;BME280;40347;53.848;27.498;2023-04-04T23:41:07;1016;;;3.9;64.2
54439;BME280;40347;53.848;27.498;2023-04-04T23:45:53;1016;;;3.9;64.2
54439;BME280;40347;53.848;27.498;2023-04-04T23:50:53;1016;;;3.9;64.1
54439;BME280;40347;53.848;27.498;2023-04-04T23:55:53;1015.9;;;3.9;64.2
